createdAt,value
2022-10-22T00:01:55.296Z,23.03
2022-10-22T00:04:22.455Z,23.30
2022-10-22T00:06:49.659Z,22.97
2022-10-22T00:09:16.728Z,25.60
2022-10-22T00:11:43.911Z,24.33
2022-10-22T00:14:11.017Z,24.13
2022-10-22T00:16:38.054Z,22.30
2022-10-22T00:19:05.100Z,20.13
2022-10-22T00:21:32.142Z,23.07
2022-10-22T00:23:59.208Z,27.57
2022-10-22T00:26:26.217Z,19.87
2022-10-22T00:28:53.677Z,26.13
2022-10-22T00:31:20.816Z,25.10
2022-10-22T00:33:48.406Z,22.87
2022-10-22T00:36:16.139Z,27.60
2022-10-22T00:38:43.293Z,23.57
2022-10-22T00:41:10.353Z,25.33
2022-10-22T00:43:54.002Z,22.47
2022-10-22T00:46:21.014Z,28.83
2022-10-22T00:48:48.136Z,24.80
2022-10-22T00:51:15.330Z,31.23
2022-10-22T00:53:45.594Z,25.83
2022-10-22T00:56:12.790Z,21.20
2022-10-22T00:58:42.518Z,29.07
2022-10-22T01:01:11.471Z,25.00
2022-10-22T01:03:38.490Z,26.27
2022-10-22T01:06:06.212Z,30.43
2022-10-22T01:08:40.570Z,27.07
2022-10-22T01:11:15.352Z,31.20
2022-10-22T01:14:08.826Z,25.27
2022-10-22T01:16:35.866Z,27.40
2022-10-22T01:19:32.324Z,25.63
2022-10-22T01:22:19.611Z,29.13
2022-10-22T01:25:05.377Z,28.30
2022-10-22T01:27:35.594Z,28.07
2022-10-22T01:30:07.551Z,33.33
2022-10-22T01:32:42.439Z,29.90
2022-10-22T01:35:11.336Z,34.27
2022-10-22T01:37:42.576Z,31.07
2022-10-22T01:40:10.622Z,26.27
2022-10-22T01:42:37.736Z,28.00
2022-10-22T01:45:10.986Z,39.13
2022-10-22T01:47:38.256Z,33.40
2022-10-22T01:50:20.617Z,35.43
2022-10-22T01:52:53.539Z,27.03
2022-10-22T01:55:40.811Z,28.27
2022-10-22T01:58:17.119Z,33.20
2022-10-22T02:00:47.220Z,30.93
2022-10-22T02:03:18.710Z,32.00
2022-10-22T02:06:00.273Z,34.67
2022-10-22T02:08:31.666Z,28.37
2022-10-22T02:10:59.289Z,31.63
2022-10-22T02:13:28.880Z,30.53
2022-10-22T02:15:56.980Z,26.17
2022-10-22T02:18:27.012Z,29.97
2022-10-22T02:20:54.417Z,24.03
2022-10-22T02:23:22.286Z,22.43
2022-10-22T02:25:52.110Z,22.90
2022-10-22T02:28:32.882Z,26.30
2022-10-22T02:31:07.136Z,26.00
2022-10-22T02:33:37.767Z,25.33
2022-10-22T02:36:05.387Z,26.00
2022-10-22T02:38:32.693Z,24.97
2022-10-22T02:40:59.773Z,22.43
2022-10-22T02:43:26.782Z,22.03
2022-10-22T02:45:53.877Z,25.50
2022-10-22T02:50:52.941Z,24.30
2022-10-22T02:53:19.959Z,26.07
2022-10-22T02:55:47.002Z,25.73
2022-10-22T02:58:14.506Z,26.93
2022-10-22T03:00:41.663Z,24.77
2022-10-22T03:03:08.784Z,30.17
2022-10-22T03:05:35.926Z,25.37
2022-10-22T03:08:02.953Z,23.23
2022-10-22T03:10:30.028Z,28.77
2022-10-22T03:12:57.132Z,29.07
2022-10-22T03:15:24.196Z,25.73
2022-10-22T03:17:51.264Z,29.37
2022-10-22T03:20:18.367Z,25.57
2022-10-22T03:22:45.453Z,25.73
2022-10-22T03:25:14.922Z,27.93
2022-10-22T03:27:42.434Z,25.73
2022-10-22T03:30:10.169Z,23.50
2022-10-22T03:32:37.184Z,26.30
2022-10-22T03:35:05.527Z,23.77
2022-10-22T03:37:33.265Z,26.00
2022-10-22T03:40:00.509Z,27.13
2022-10-22T03:42:27.789Z,28.57
2022-10-22T03:44:54.811Z,31.13
2022-10-22T03:47:24.431Z,25.43
2022-10-22T03:49:54.483Z,23.03
2022-10-22T03:52:21.515Z,26.27
2022-10-22T03:54:48.555Z,31.47
2022-10-22T03:57:16.043Z,29.07
2022-10-22T03:59:44.198Z,23.57
2022-10-22T04:02:11.701Z,26.10
2022-10-22T04:04:39.133Z,30.23
2022-10-22T04:07:07.151Z,27.93
2022-10-22T04:09:35.026Z,27.77
2022-10-22T04:12:02.139Z,28.23
2022-10-22T04:14:29.163Z,24.13
2022-10-22T04:16:56.214Z,26.67
2022-10-22T04:19:23.265Z,33.80
2022-10-22T04:21:50.388Z,29.63
2022-10-22T04:24:17.495Z,23.57
2022-10-22T04:26:44.563Z,28.50
2022-10-22T04:29:15.116Z,28.57
2022-10-22T04:31:43.370Z,23.73
2022-10-22T04:34:10.382Z,26.97
2022-10-22T04:36:37.474Z,27.67
2022-10-22T04:39:04.921Z,24.97
2022-10-22T04:41:33.259Z,25.87
2022-10-22T04:44:00.654Z,24.17
2022-10-22T04:46:32.642Z,31.50
2022-10-22T04:48:59.772Z,25.00
2022-10-22T04:51:27.707Z,22.97
2022-10-22T04:53:55.236Z,28.73
2022-10-22T04:56:24.857Z,23.90
2022-10-22T04:58:53.652Z,25.37
2022-10-22T05:01:21.878Z,22.43
2022-10-22T05:03:49.678Z,24.63
2022-10-22T05:06:17.074Z,25.03
2022-10-22T05:08:44.727Z,25.80
2022-10-22T05:11:19.518Z,21.17
2022-10-22T05:13:46.625Z,24.97
2022-10-22T05:16:14.196Z,24.80
2022-10-22T05:18:42.259Z,23.03
2022-10-22T05:21:10.551Z,20.83
2022-10-22T05:23:37.907Z,22.23
2022-10-22T05:26:05.662Z,23.00
2022-10-22T05:28:33.035Z,21.83
2022-10-22T05:31:00.731Z,23.30
2022-10-22T05:33:33.397Z,20.77
2022-10-22T05:36:00.846Z,23.40
2022-10-22T05:38:28.034Z,29.70
2022-10-22T05:41:08.207Z,23.63
2022-10-22T05:43:35.715Z,24.03
2022-10-22T05:46:04.057Z,24.50
2022-10-22T05:51:04.437Z,24.87
2022-10-22T05:53:35.584Z,21.13
2022-10-22T05:56:03.148Z,24.50
2022-10-22T05:58:30.610Z,20.60
2022-10-22T06:01:07.572Z,20.97
2022-10-22T06:03:34.976Z,21.30
2022-10-22T06:06:17.061Z,23.13
2022-10-22T06:08:44.157Z,21.23
2022-10-22T06:11:11.261Z,22.37
2022-10-22T06:13:38.655Z,21.53
2022-10-22T06:16:05.743Z,23.93
2022-10-22T06:18:33.862Z,22.27
2022-10-22T06:21:14.520Z,20.23
2022-10-22T06:23:42.109Z,21.20
2022-10-22T06:26:09.679Z,22.53
2022-10-22T06:28:36.775Z,18.43
2022-10-22T06:31:04.601Z,19.57
2022-10-22T06:33:32.895Z,17.57
2022-10-22T06:36:07.754Z,18.20
2022-10-22T06:38:35.136Z,20.13
2022-10-22T06:41:10.433Z,20.10
2022-10-22T06:43:37.536Z,18.80
2022-10-22T06:46:07.139Z,20.23
2022-10-22T06:48:35.957Z,26.97
2022-10-22T06:51:03.887Z,20.93
2022-10-22T06:53:31.406Z,22.07
2022-10-22T06:55:58.568Z,20.00
2022-10-22T06:58:25.709Z,19.10
2022-10-22T07:01:01.629Z,18.23
2022-10-22T07:03:28.704Z,26.90
2022-10-22T07:05:55.890Z,23.87
2022-10-22T07:08:22.922Z,20.53
2022-10-22T07:10:49.947Z,25.23
2022-10-22T07:13:17.035Z,18.27
2022-10-22T07:15:44.090Z,24.57
2022-10-22T07:18:11.111Z,18.30
2022-10-22T07:20:38.153Z,21.60
2022-10-22T07:23:05.239Z,23.07
2022-10-22T07:25:32.277Z,20.67
2022-10-22T07:27:59.306Z,20.03
2022-10-22T07:30:26.407Z,20.03
2022-10-22T07:32:53.437Z,21.00
2022-10-22T07:35:20.514Z,21.90
2022-10-22T07:37:47.565Z,23.83
2022-10-22T07:40:14.661Z,22.80
2022-10-22T07:42:41.698Z,24.30
2022-10-22T07:45:09.110Z,20.40
2022-10-22T07:47:36.257Z,21.77
2022-10-22T07:50:03.571Z,18.40
2022-10-22T07:52:30.658Z,22.03
2022-10-22T07:54:57.672Z,21.07
2022-10-22T07:57:24.782Z,22.63
2022-10-22T07:59:51.865Z,32.90
2022-10-22T08:02:18.954Z,21.80
2022-10-22T08:04:45.986Z,25.53
2022-10-22T08:07:13.235Z,26.07
2022-10-22T08:09:40.419Z,27.07
2022-10-22T08:12:07.751Z,23.97
2022-10-22T08:14:34.779Z,26.97
2022-10-22T08:17:01.841Z,28.90
2022-10-22T08:19:29.742Z,26.40
2022-10-22T08:21:56.772Z,23.87
2022-10-22T08:24:23.799Z,24.93
2022-10-22T08:26:51.003Z,23.10
2022-10-22T08:29:18.138Z,21.27
2022-10-22T08:31:45.199Z,23.90
2022-10-22T08:34:12.224Z,22.17
2022-10-22T08:36:39.365Z,25.23
2022-10-22T08:39:06.409Z,23.97
2022-10-22T08:41:36.239Z,18.67
2022-10-22T08:44:32.830Z,19.83
2022-10-22T08:47:18.688Z,23.13
2022-10-22T08:49:48.581Z,17.93
2022-10-22T08:52:17.649Z,19.20
2022-10-22T08:54:52.409Z,18.07
2022-10-22T08:57:28.440Z,17.53
2022-10-22T09:00:03.098Z,16.47
2022-10-22T09:02:33.686Z,16.17
2022-10-22T09:05:12.398Z,19.77
2022-10-22T09:07:41.717Z,16.73
2022-10-22T09:10:10.342Z,15.97
2022-10-22T09:12:37.491Z,14.00
2022-10-22T09:15:05.063Z,18.93
2022-10-22T09:17:35.376Z,18.13
2022-10-22T09:20:15.903Z,15.03
2022-10-22T09:22:58.234Z,14.20
2022-10-22T09:25:27.638Z,15.37
2022-10-22T09:27:58.376Z,14.27
2022-10-22T09:30:29.829Z,13.47
2022-10-22T09:33:01.096Z,15.87
2022-10-22T09:35:29.124Z,16.63
2022-10-22T09:37:57.456Z,14.47
2022-10-22T09:40:24.831Z,15.93
2022-10-22T09:42:51.886Z,16.60
2022-10-22T09:45:20.957Z,14.93
2022-10-22T09:48:01.630Z,16.23
2022-10-22T09:50:29.207Z,16.20
2022-10-22T09:53:05.834Z,13.30
2022-10-22T09:55:33.148Z,12.27
2022-10-22T09:58:01.529Z,22.60
2022-10-22T10:00:30.272Z,16.47
2022-10-22T10:02:58.238Z,14.70
2022-10-22T10:05:26.733Z,13.83
2022-10-22T10:07:53.810Z,14.40
2022-10-22T10:10:28.320Z,13.03
2022-10-22T10:13:03.757Z,12.83
2022-10-22T10:15:37.237Z,14.30
2022-10-22T10:18:15.106Z,12.67
2022-10-22T10:20:45.089Z,13.23
2022-10-22T10:23:28.847Z,13.23
2022-10-22T10:25:58.909Z,10.53
2022-10-22T10:28:25.930Z,11.87
2022-10-22T10:31:11.364Z,12.07
2022-10-22T10:33:41.219Z,12.90
2022-10-22T10:36:16.361Z,13.50
2022-10-22T10:39:03.464Z,12.80
2022-10-22T10:41:48.417Z,11.73
2022-10-22T10:44:15.452Z,11.10
2022-10-22T10:46:42.505Z,11.80
2022-10-22T10:49:15.737Z,11.33
2022-10-22T10:51:45.552Z,10.67
2022-10-22T10:54:12.604Z,8.47
2022-10-22T10:56:48.040Z,10.13
2022-10-22T10:59:25.569Z,9.50
2022-10-22T11:02:11.233Z,10.30
2022-10-22T11:04:41.302Z,9.87
2022-10-22T11:09:48.932Z,8.53
2022-10-22T11:12:22.637Z,10.10
2022-10-22T11:15:08.597Z,7.80
2022-10-22T11:17:46.784Z,9.90
2022-10-22T11:20:22.928Z,7.63
2022-10-22T11:23:17.374Z,9.17
2022-10-22T11:25:47.998Z,8.63
2022-10-22T11:28:17.826Z,8.13
2022-10-22T11:30:46.610Z,9.67
2022-10-22T11:33:17.102Z,8.10
2022-10-22T11:35:45.492Z,8.00
2022-10-22T11:38:16.717Z,9.90
2022-10-22T11:40:46.298Z,7.50
2022-10-22T11:43:26.837Z,7.70
2022-10-22T11:45:58.656Z,8.47
2022-10-22T11:48:27.874Z,12.90
2022-10-22T11:51:02.511Z,8.70
2022-10-22T11:53:34.274Z,7.63
2022-10-22T11:56:07.117Z,8.00
2022-10-22T11:58:47.664Z,8.60
2022-10-22T12:01:17.323Z,6.30
2022-10-22T12:03:54.759Z,8.77
2022-10-22T12:06:23.495Z,7.90
2022-10-22T12:08:54.342Z,7.97
2022-10-22T12:11:21.437Z,9.50
2022-10-22T12:13:52.537Z,8.63
2022-10-22T12:16:32.102Z,8.03
2022-10-22T12:19:22.910Z,9.43
2022-10-22T12:21:53.691Z,8.83
2022-10-22T12:24:22.935Z,8.87
2022-10-22T12:26:52.400Z,9.13
2022-10-22T12:29:22.711Z,7.50
2022-10-22T12:31:49.882Z,8.70
2022-10-22T12:34:22.568Z,8.93
2022-10-22T12:36:50.471Z,7.07
2022-10-22T12:39:19.605Z,11.47
2022-10-22T12:41:46.798Z,7.43
2022-10-22T12:44:15.436Z,6.33
2022-10-22T12:46:43.242Z,7.57
2022-10-22T12:49:21.545Z,8.30
2022-10-22T12:51:49.233Z,6.60
2022-10-22T12:54:27.185Z,8.73
2022-10-22T12:56:54.982Z,7.33
2022-10-22T12:59:42.844Z,8.17
2022-10-22T13:02:24.331Z,6.53
2022-10-22T13:05:09.779Z,6.33
2022-10-22T13:07:41.992Z,6.80
2022-10-22T13:10:18.225Z,6.83
2022-10-22T13:12:50.314Z,6.00
2022-10-22T13:15:20.434Z,10.27
2022-10-22T13:17:48.731Z,6.30
2022-10-22T13:20:17.817Z,5.70
2022-10-22T13:22:54.541Z,5.43
2022-10-22T13:25:23.431Z,5.50
2022-10-22T13:27:52.666Z,5.40
2022-10-22T13:30:24.466Z,5.30
2022-10-22T13:32:53.429Z,5.50
2022-10-22T13:35:22.249Z,3.90
2022-10-22T13:37:49.320Z,3.37
2022-10-22T13:40:16.504Z,2.83
2022-10-22T13:42:44.020Z,1.43
2022-10-22T13:45:11.277Z,1.83
2022-10-22T13:47:38.408Z,0.93
2022-10-22T13:50:10.987Z,1.23
2022-10-22T13:52:43.489Z,1.07
2022-10-22T13:55:15.421Z,0.90
2022-10-22T13:57:42.500Z,3.63
2022-10-22T14:00:12.218Z,0.87
2022-10-22T14:02:39.582Z,0.90
2022-10-22T14:05:09.523Z,1.00
2022-10-22T14:07:37.336Z,1.47
2022-10-22T14:10:07.451Z,1.27
2022-10-22T14:12:34.534Z,1.00
2022-10-22T14:15:01.684Z,0.87
2022-10-22T14:17:29.211Z,1.00
2022-10-22T14:19:56.244Z,3.00
2022-10-22T14:22:25.074Z,1.00
2022-10-22T14:24:52.235Z,1.00
2022-10-22T14:27:19.307Z,1.57
2022-10-22T14:29:46.504Z,1.33
2022-10-22T14:32:21.480Z,1.30
2022-10-22T14:34:48.574Z,2.60
2022-10-22T14:37:17.650Z,0.73
2022-10-22T14:39:46.783Z,0.77
2022-10-22T14:42:16.355Z,0.60
2022-10-22T14:44:43.459Z,1.43
2022-10-22T14:47:10.489Z,0.90
2022-10-22T14:49:37.652Z,1.00
2022-10-22T14:52:04.720Z,0.90
2022-10-22T14:54:33.116Z,7.37
2022-10-22T14:57:00.180Z,0.73
2022-10-22T14:59:27.220Z,0.77
2022-10-22T15:01:54.250Z,1.23
2022-10-22T15:04:21.529Z,1.10
2022-10-22T15:06:48.773Z,1.20
2022-10-22T15:09:15.900Z,1.37
2022-10-22T15:11:43.013Z,1.07
2022-10-22T15:14:10.137Z,1.57
2022-10-22T15:16:37.197Z,1.63
2022-10-22T15:19:04.243Z,1.00
2022-10-22T15:21:31.411Z,1.03
2022-10-22T15:23:58.637Z,0.90
2022-10-22T15:26:25.673Z,2.10
2022-10-22T15:28:52.796Z,2.77
2022-10-22T15:31:39.785Z,1.97
2022-10-22T15:34:06.848Z,2.77
2022-10-22T15:36:33.901Z,0.80
2022-10-22T15:39:00.933Z,0.80
2022-10-22T15:41:28.030Z,1.20
2022-10-22T15:43:55.040Z,2.70
2022-10-22T15:46:22.616Z,1.47
2022-10-22T15:48:49.638Z,2.60
2022-10-22T15:51:18.140Z,1.53
2022-10-22T15:53:45.369Z,2.70
2022-10-22T15:56:12.610Z,2.77
2022-10-22T15:58:39.631Z,3.87
2022-10-22T16:01:08.228Z,3.73
2022-10-22T16:03:35.679Z,4.97
2022-10-22T16:06:03.330Z,8.70
2022-10-22T16:08:30.395Z,5.03
2022-10-22T16:10:58.517Z,7.03
2022-10-22T16:13:26.443Z,5.57
2022-10-22T16:15:53.802Z,8.40
2022-10-22T16:18:21.502Z,7.80
2022-10-22T16:20:48.536Z,7.70
2022-10-22T16:23:18.666Z,9.73
2022-10-22T16:25:46.606Z,7.57
2022-10-22T16:28:13.917Z,9.43
2022-10-22T16:30:41.671Z,11.07
2022-10-22T16:33:08.973Z,11.93
2022-10-22T16:35:39.960Z,12.63
2022-10-22T16:38:07.052Z,12.40
2022-10-22T16:40:34.158Z,9.80
2022-10-22T16:43:01.209Z,11.13
2022-10-22T16:45:28.225Z,11.77
2022-10-22T16:47:55.332Z,14.07
2022-10-22T16:50:22.383Z,11.27
2022-10-22T16:52:50.709Z,12.50
2022-10-22T16:55:17.980Z,13.70
2022-10-22T16:57:50.002Z,12.07
2022-10-22T17:00:17.151Z,14.13
2022-10-22T17:02:44.434Z,12.73
2022-10-22T17:05:11.629Z,10.37
2022-10-22T17:07:38.671Z,12.47
2022-10-22T17:10:06.060Z,14.00
2022-10-22T17:12:35.351Z,15.70
2022-10-22T17:15:03.298Z,16.30
2022-10-22T17:17:30.333Z,15.83
2022-10-22T17:19:57.352Z,13.20
2022-10-22T17:22:24.805Z,12.50
2022-10-22T17:25:10.635Z,13.07
2022-10-22T17:27:38.453Z,15.70
2022-10-22T17:30:06.288Z,18.60
2022-10-22T17:32:37.323Z,17.37
2022-10-22T17:35:04.460Z,18.93
2022-10-22T17:37:31.736Z,18.03
2022-10-22T17:39:58.894Z,15.37
2022-10-22T17:42:25.967Z,15.63
2022-10-22T17:44:53.041Z,18.27
2022-10-22T17:47:20.138Z,16.93
2022-10-22T17:49:47.160Z,15.67
2022-10-22T17:52:14.684Z,16.20
2022-10-22T17:54:42.466Z,19.40
2022-10-22T17:57:09.846Z,19.87
2022-10-22T17:59:36.944Z,17.27
2022-10-22T18:02:04.049Z,19.53
2022-10-22T18:04:31.739Z,17.70
2022-10-22T18:06:59.301Z,17.30
2022-10-22T18:09:26.972Z,19.90
2022-10-22T18:11:55.642Z,17.13
2022-10-22T18:14:23.302Z,18.53
2022-10-22T18:16:50.587Z,17.90
2022-10-22T18:19:19.633Z,19.90
2022-10-22T18:21:47.152Z,19.93
2022-10-22T18:24:15.194Z,16.47
2022-10-22T18:26:42.536Z,22.30
2022-10-22T18:29:10.810Z,18.50
2022-10-22T18:31:37.836Z,16.47
2022-10-22T18:34:04.900Z,18.03
2022-10-22T18:36:31.931Z,15.73
2022-10-22T18:39:00.425Z,20.67
2022-10-22T18:41:28.256Z,20.40
2022-10-22T18:43:56.476Z,18.63
2022-10-22T18:46:26.838Z,14.70
2022-10-22T18:48:54.688Z,16.10
2022-10-22T18:51:22.283Z,18.83
2022-10-22T18:54:05.259Z,15.30
2022-10-22T18:56:41.577Z,18.93
2022-10-22T18:59:14.293Z,16.07
2022-10-22T19:01:41.302Z,18.13
2022-10-22T19:04:08.331Z,13.50
2022-10-22T19:06:37.150Z,14.23
2022-10-22T19:09:05.102Z,15.13
2022-10-22T19:11:32.496Z,14.90
2022-10-22T19:13:59.553Z,12.97
2022-10-22T19:16:27.129Z,15.70
2022-10-22T19:18:59.273Z,13.00
2022-10-22T19:21:26.737Z,13.40
2022-10-22T19:23:57.694Z,14.73
2022-10-22T19:26:26.374Z,13.17
2022-10-22T19:28:54.400Z,13.77
2022-10-22T19:31:22.734Z,16.30
2022-10-22T19:33:50.372Z,15.37
2022-10-22T19:36:18.597Z,20.63
2022-10-22T19:38:47.052Z,14.67
2022-10-22T19:41:15.112Z,14.63
2022-10-22T19:43:43.092Z,13.33
2022-10-22T19:46:10.659Z,13.77
2022-10-22T19:48:38.167Z,16.57
2022-10-22T19:51:08.406Z,17.20
2022-10-22T19:53:36.279Z,14.37
2022-10-22T19:56:05.374Z,13.43
2022-10-22T19:58:32.468Z,13.03
2022-10-22T20:01:03.982Z,12.40
2022-10-22T20:03:31.017Z,11.07
2022-10-22T20:05:58.059Z,13.70
2022-10-22T20:08:25.162Z,10.60
2022-10-22T20:10:52.228Z,9.27
2022-10-22T20:13:19.319Z,9.33
2022-10-22T20:15:49.932Z,9.70
2022-10-22T20:18:17.004Z,9.77
2022-10-22T20:20:44.025Z,8.73
2022-10-22T20:23:11.379Z,11.27
2022-10-22T20:25:42.604Z,8.20
2022-10-22T20:28:09.877Z,7.57
2022-10-22T20:30:41.049Z,7.47
2022-10-22T20:33:08.078Z,8.43
2022-10-22T20:35:35.673Z,8.03
2022-10-22T20:38:02.997Z,7.00
2022-10-22T20:40:32.250Z,9.20
2022-10-22T20:42:59.799Z,9.83
2022-10-22T20:45:27.342Z,9.43
2022-10-22T20:48:01.960Z,8.77
2022-10-22T20:50:31.306Z,10.83
2022-10-22T20:52:58.616Z,8.93
2022-10-22T20:55:25.825Z,8.47
2022-10-22T20:57:52.957Z,8.67
2022-10-22T21:00:20.053Z,11.23
2022-10-22T21:02:47.250Z,8.47
2022-10-22T21:05:14.303Z,7.10
2022-10-22T21:07:41.700Z,7.77
2022-10-22T21:10:09.397Z,7.40
2022-10-22T21:12:41.698Z,6.73
2022-10-22T21:15:12.489Z,10.43
2022-10-22T21:17:40.617Z,6.37
2022-10-22T21:20:07.845Z,6.87
2022-10-22T21:22:34.989Z,8.70
2022-10-22T21:25:02.020Z,10.10
2022-10-22T21:27:29.070Z,11.10
2022-10-22T21:29:56.117Z,9.77
2022-10-22T21:32:23.166Z,9.70
2022-10-22T21:34:50.172Z,7.80
2022-10-22T21:37:17.179Z,8.40
2022-10-22T21:39:44.215Z,8.87
2022-10-22T21:42:11.237Z,10.90
2022-10-22T21:44:38.298Z,6.93
2022-10-22T21:47:05.545Z,10.60
2022-10-22T21:49:32.666Z,8.20
2022-10-22T21:52:00.242Z,8.40
2022-10-22T21:54:27.343Z,7.63
2022-10-22T21:56:54.375Z,8.93
2022-10-22T21:59:21.487Z,9.53
2022-10-22T22:01:48.634Z,10.73
2022-10-22T22:04:15.742Z,9.40
2022-10-22T22:06:42.754Z,9.17
2022-10-22T22:09:09.859Z,11.10
2022-10-22T22:11:36.983Z,9.63
2022-10-22T22:14:04.060Z,10.47
2022-10-22T22:16:32.609Z,9.57
2022-10-22T22:19:00.886Z,9.27
2022-10-22T22:21:28.433Z,10.00
2022-10-22T22:23:55.504Z,9.93
2022-10-22T22:26:26.722Z,10.87
2022-10-22T22:28:57.083Z,8.80
2022-10-22T22:31:25.496Z,6.40
2022-10-22T22:33:53.169Z,8.73
2022-10-22T22:36:20.179Z,8.43
2022-10-22T22:38:47.219Z,8.80
2022-10-22T22:41:14.218Z,7.80
2022-10-22T22:43:41.301Z,10.73
2022-10-22T22:46:11.329Z,6.17
2022-10-22T22:48:38.482Z,7.83
2022-10-22T22:51:06.195Z,6.27
2022-10-22T22:53:33.970Z,10.83
2022-10-22T22:56:12.093Z,7.07
2022-10-22T22:58:42.917Z,5.77
2022-10-22T23:01:13.153Z,8.43
2022-10-22T23:03:40.340Z,7.83
2022-10-22T23:06:07.647Z,5.77
2022-10-22T23:08:34.921Z,5.77
2022-10-22T23:11:03.258Z,5.93
2022-10-22T23:13:30.360Z,4.67
2022-10-22T23:15:57.410Z,6.57
2022-10-22T23:18:24.490Z,5.57
2022-10-22T23:20:51.592Z,7.70
2022-10-22T23:23:18.608Z,20.43
2022-10-22T23:25:45.731Z,6.50
2022-10-22T23:28:12.865Z,5.87
2022-10-22T23:30:44.794Z,5.93
2022-10-22T23:33:12.271Z,5.57
2022-10-22T23:35:40.702Z,5.60
2022-10-22T23:38:07.703Z,7.73
2022-10-22T23:40:34.826Z,5.07
2022-10-22T23:43:01.899Z,6.03
2022-10-22T23:45:28.977Z,4.73
2022-10-22T23:47:56.026Z,4.80
2022-10-22T23:50:23.162Z,7.67
2022-10-22T23:52:51.792Z,5.40
2022-10-22T23:55:19.421Z,6.60
2022-10-22T23:57:46.550Z,6.40
